Time;durP1;ratioP1;P1;durP2;ratioP2;P2;SDS_P1;SDS_P2;PMS_P1;PMS_P2;Temp;Humidity;BMP_temperature;BMP_pressure;BME280_temperature;BME280_humidity;BME280_pressure;Samples;Min_cycle;Max_cycle;Signal;HPM_P1;HPM_P2
2022/01/21 00:01:45;;;;;;;21.45;5.97;;;;;;;-0.46;93.19;103368.41;5030666;28;20025;-71
2022/01/21 00:04:11;;;;;;;19.08;4.85;;;;;;;-0.46;93.29;103376.25;5030334;28;20144;-71
2022/01/21 00:06:38;;;;;;;18.40;4.65;;;;;;;-0.47;93.14;103361.44;5027645;28;20119;-71
2022/01/21 00:09:04;;;;;;;17.95;4.28;;;;;;;-0.47;93.58;103371.88;5030613;28;20036;-71
2022/01/21 00:11:30;;;;;;;17.35;4.93;;;;;;;-0.49;93.10;103372.75;5029074;28;20026;-69
2022/01/21 00:13:57;;;;;;;23.13;5.63;;;;;;;-0.49;93.49;103376.22;5030392;28;20022;-68
2022/01/21 00:16:25;;;;;;;16.63;4.75;;;;;;;-0.52;93.47;103372.69;5030532;28;20041;-68
2022/01/21 00:18:57;;;;;;;12.30;4.47;;;;;;;-0.54;93.36;103374.44;5023248;28;20030;-68
2022/01/21 00:32:20;;;;;;;18.77;5.95;;;;;;;-0.59;92.95;103375.22;5028799;28;20132;-70
2022/01/21 00:34:48;;;;;;;17.38;5.18;;;;;;;-0.60;93.44;103370.91;5027977;28;20523;-69
2022/01/21 00:37:15;;;;;;;17.17;4.40;;;;;;;-0.61;93.48;103366.53;5030604;28;20112;-70
2022/01/21 00:39:40;;;;;;;16.60;4.43;;;;;;;-0.62;93.46;103361.28;5027869;28;20108;-69
2022/01/21 00:44:46;;;;;;;20.85;5.32;;;;;;;-0.65;93.72;103358.63;5024600;28;20037;-69
2022/01/21 00:47:12;;;;;;;20.63;4.50;;;;;;;-0.65;93.63;103361.25;5030088;28;20040;-69
2022/01/21 00:49:37;;;;;;;22.10;4.57;;;;;;;-0.65;93.65;103366.47;5029853;28;20104;-69
2022/01/21 00:52:03;;;;;;;16.60;4.20;;;;;;;-0.66;93.93;103357.78;5027910;28;20132;-70
2022/01/21 00:54:28;;;;;;;18.02;3.78;;;;;;;-0.66;93.99;103368.22;5028871;28;20030;-68
2022/01/21 00:56:53;;;;;;;18.40;4.13;;;;;;;-0.66;94.45;103370.81;5024807;28;20118;-69
2022/01/21 00:59:18;;;;;;;18.95;4.28;;;;;;;-0.67;94.00;103374.28;5020806;28;20036;-70
2022/01/21 01:01:44;;;;;;;15.45;3.83;;;;;;;-0.68;94.11;103372.53;5029758;28;20494;-69
2022/01/21 01:04:09;;;;;;;13.00;3.92;;;;;;;-0.71;93.97;103371.63;5030032;28;20072;-69
2022/01/21 01:06:35;;;;;;;11.40;3.75;;;;;;;-0.73;93.85;103378.56;5023405;28;20389;-70
2022/01/21 01:09:00;;;;;;;15.20;3.40;;;;;;;-0.75;94.06;103382.03;5021280;28;20041;-70
2022/01/21 01:22:06;;;;;;;14.27;4.13;;;;;;;-0.82;93.91;103371.50;5029796;28;20052;-69
2022/01/21 01:30:00;;;;;;;14.73;4.18;;;;;;;-0.87;93.80;103358.38;5030126;28;20039;-69
2022/01/21 01:32:28;;;;;;;14.52;4.10;;;;;;;-0.88;93.55;103358.38;5025006;28;20033;-69
2022/01/21 01:34:54;;;;;;;18.15;3.80;;;;;;;-0.90;94.05;103358.34;5029618;28;20025;-70
2022/01/21 01:37:34;;;;;;;17.38;4.18;;;;;;;-0.91;94.19;103360.97;5024868;28;20026;-70
2022/01/21 01:40:15;;;;;;;16.73;4.35;;;;;;;-0.92;93.85;103360.06;5028025;28;20468;-69
2022/01/21 01:50:38;;;;;;;14.65;3.50;;;;;;;-0.99;94.04;103366.09;5032701;28;20143;-70
2022/01/21 01:53:06;;;;;;;16.90;3.97;;;;;;;-1.01;93.82;103357.38;5032936;28;20049;-68
2022/01/21 01:55:32;;;;;;;14.57;3.38;;;;;;;-1.01;93.86;103360.84;5033027;28;20029;-69
2022/01/21 01:57:57;;;;;;;12.07;3.28;;;;;;;-1.04;93.69;103358.19;5030308;28;20036;-69
2022/01/21 02:00:22;;;;;;;15.48;4.00;;;;;;;-1.03;94.33;103357.34;5027185;28;20021;-69
2022/01/21 02:02:48;;;;;;;11.13;2.90;;;;;;;-1.05;94.09;103356.47;5032984;28;20022;-69
2022/01/21 02:05:13;;;;;;;9.95;3.15;;;;;;;-1.05;94.21;103347.75;5027584;28;20035;-68
2022/01/21 02:07:39;;;;;;;13.07;3.38;;;;;;;-1.07;94.17;103344.25;5028079;28;20032;-69
2022/01/21 02:10:05;;;;;;;15.52;3.70;;;;;;;-1.09;94.12;103351.19;5033243;28;20038;-69
2022/01/21 02:12:30;;;;;;;11.30;3.60;;;;;;;-1.10;94.48;103358.09;5032791;28;20025;-69
2022/01/21 02:14:55;;;;;;;14.32;3.95;;;;;;;-1.12;94.44;103350.28;5026905;28;20159;-69
2022/01/21 02:22:38;;;;;;;13.50;3.97;;;;;;;-1.16;94.41;103365.88;5029871;28;20189;-69
2022/01/21 02:25:38;;;;;;;16.75;4.78;;;;;;;-1.18;94.53;103367.59;5018920;28;20105;-69
2022/01/21 02:28:00;;;;;;;13.82;3.95;;;;;;;-1.20;94.45;103361.47;5030256;28;20057;-68
2022/01/21 02:30:25;;;;;;;19.45;4.05;;;;;;;-1.22;94.55;103351.00;5026525;28;20037;-69
2022/01/21 02:32:53;;;;;;;16.73;4.13;;;;;;;-1.23;94.77;103353.59;5031280;28;20061;-68
2022/01/21 02:35:19;;;;;;;17.08;3.92;;;;;;;-1.25;94.81;103353.59;5027008;28;20029;-69
2022/01/21 02:37:46;;;;;;;13.18;4.00;;;;;;;-1.26;94.67;103348.38;5032508;28;20477;-69
2022/01/21 02:40:13;;;;;;;11.88;3.63;;;;;;;-1.27;94.36;103352.69;5019454;28;20468;-68
2022/01/21 02:42:39;;;;;;;15.07;4.05;;;;;;;-1.27;94.93;103346.59;5031251;28;20049;-69
2022/01/21 02:45:06;;;;;;;15.55;3.90;;;;;;;-1.28;94.73;103350.94;5028074;28;20502;-69
2022/01/21 02:47:31;;;;;;;15.98;4.32;;;;;;;-1.28;95.03;103355.25;5025775;28;20387;-68
2022/01/21 02:49:57;;;;;;;15.75;4.40;;;;;;;-1.28;94.73;103352.66;5032283;28;20021;-69
2022/01/21 02:52:26;;;;;;;14.63;3.42;;;;;;;-1.32;94.52;103357.84;5032324;28;20503;-69
2022/01/21 02:54:51;;;;;;;11.57;3.88;;;;;;;-1.31;94.69;103361.34;5032100;28;20025;-68
2022/01/21 02:57:17;;;;;;;15.48;3.83;;;;;;;-1.34;94.59;103361.28;5024066;28;20039;-68
2022/01/21 02:59:42;;;;;;;10.35;3.63;;;;;;;-1.34;95.03;103359.53;5028776;28;20037;-69
2022/01/21 03:02:08;;;;;;;11.57;3.83;;;;;;;-1.36;94.73;103366.47;5021903;28;20030;-68
2022/01/21 03:04:46;;;;;;;10.25;4.05;;;;;;;-1.37;94.91;103375.13;5027541;28;20022;-68
2022/01/21 03:07:12;;;;;;;17.33;3.93;;;;;;;-1.39;95.03;103366.44;5019722;28;20033;-68
2022/01/21 03:09:37;;;;;;;18.67;4.25;;;;;;;-1.38;95.12;103367.28;5022941;28;20033;-68
2022/01/21 03:12:03;;;;;;;12.68;3.58;;;;;;;-1.39;95.21;103368.16;5031257;28;20040;-68
2022/01/21 03:14:28;;;;;;;15.15;4.00;;;;;;;-1.41;95.34;103373.34;5028215;28;20034;-68
2022/01/21 03:16:54;;;;;;;15.77;3.58;;;;;;;-1.42;95.55;103368.13;5029467;28;20116;-68
2022/01/21 03:19:19;;;;;;;14.98;3.55;;;;;;;-1.42;95.45;103370.72;5031662;28;20018;-69
2022/01/21 03:21:45;;;;;;;13.80;4.43;;;;;;;-1.43;95.32;103371.56;5031523;28;20021;-69
2022/01/21 03:24:11;;;;;;;12.75;3.78;;;;;;;-1.44;95.47;103378.53;5029485;28;20036;-69
2022/01/21 03:26:36;;;;;;;14.65;4.05;;;;;;;-1.43;95.72;103374.19;5031673;28;20112;-68
2022/01/21 03:29:03;;;;;;;12.18;3.40;;;;;;;-1.44;95.67;103372.44;5024490;28;20387;-68
2022/01/21 03:31:30;;;;;;;18.48;4.68;;;;;;;-1.44;95.86;103377.66;5031525;28;20515;-68
2022/01/21 03:33:59;;;;;;;17.77;4.38;;;;;;;-1.46;95.65;103388.06;5031611;28;20056;-68
2022/01/21 03:36:26;;;;;;;23.83;4.18;;;;;;;-1.45;95.99;103388.94;5018587;28;20116;-68
2022/01/21 03:38:51;;;;;;;14.40;3.58;;;;;;;-1.46;95.97;103381.97;5031185;28;20040;-67
2022/01/21 03:41:17;;;;;;;11.13;3.28;;;;;;;-1.47;95.97;103383.69;5029939;28;20029;-68
2022/01/21 03:43:42;;;;;;;13.15;3.50;;;;;;;-1.47;96.09;103386.28;5031047;28;20022;-68
2022/01/21 03:46:07;;;;;;;19.00;4.00;;;;;;;-1.47;95.71;103388.03;5030976;28;20033;-69
2022/01/21 03:48:33;;;;;;;12.27;3.40;;;;;;;-1.47;95.84;103380.22;5031046;28;20104;-68
2022/01/21 03:50:59;;;;;;;17.73;4.00;;;;;;;-1.51;95.92;103382.78;5024527;28;20044;-68
2022/01/21 03:53:24;;;;;;;17.63;3.88;;;;;;;-1.52;95.85;103380.13;5025571;28;20491;-68
2022/01/21 03:55:50;;;;;;;9.05;3.20;;;;;;;-1.52;95.91;103381.00;5022016;28;20091;-68
2022/01/21 03:58:15;;;;;;;16.85;3.75;;;;;;;-1.53;95.71;103381.00;5030912;28;20472;-68
2022/01/21 04:00:46;;;;;;;16.20;3.65;;;;;;;-1.54;96.19;103389.66;5028693;28;20029;-68
2022/01/21 04:03:11;;;;;;;12.23;3.15;;;;;;;-1.55;96.07;103377.47;5023394;28;20431;-68
2022/01/21 04:05:37;;;;;;;12.43;3.72;;;;;;;-1.56;95.88;103383.56;5030520;28;20056;-69
2022/01/21 04:08:04;;;;;;;14.90;3.50;;;;;;;-1.58;96.25;103386.16;5031100;28;20029;-68
2022/01/21 04:10:30;;;;;;;11.35;3.35;;;;;;;-1.59;96.07;103384.38;5026636;28;20052;-68
2022/01/21 04:12:56;;;;;;;11.93;3.53;;;;;;;-1.59;96.20;103389.59;5020674;28;20372;-68
2022/01/21 04:15:22;;;;;;;19.90;3.80;;;;;;;-1.59;96.39;103383.53;5012636;28;20072;-68
2022/01/21 04:17:48;;;;;;;12.43;2.90;;;;;;;-1.60;96.53;103373.94;5030282;28;20490;-68
2022/01/21 04:20:14;;;;;;;7.85;3.30;;;;;;;-1.59;96.75;103383.53;5030470;28;20025;-68
2022/01/21 04:22:40;;;;;;;8.52;3.30;;;;;;;-1.61;96.43;103387.84;5018662;28;20040;-68
2022/01/21 04:25:06;;;;;;;12.40;3.28;;;;;;;-1.62;96.60;103383.47;5026771;28;20033;-68
2022/01/21 04:27:32;;;;;;;15.93;3.40;;;;;;;-1.63;96.85;103377.38;5021311;28;20399;-68
2022/01/21 04:29:57;;;;;;;12.05;3.30;;;;;;;-1.63;96.99;103387.81;5030226;28;20040;-68
2022/01/21 04:32:23;;;;;;;15.98;3.15;;;;;;;-1.64;96.99;103383.44;5030381;28;20029;-67
2022/01/21 04:34:48;;;;;;;11.50;3.40;;;;;;;-1.64;96.88;103378.22;5026358;28;20373;-68
2022/01/21 04:37:15;;;;;;;16.83;3.40;;;;;;;-1.64;97.24;103375.63;5030128;28;20133;-68
2022/01/21 04:39:50;;;;;;;13.80;2.90;;;;;;;-1.68;96.90;103377.31;5028912;28;20021;-68
2022/01/21 04:47:26;;;;;;;11.65;2.88;;;;;;;-1.69;97.09;103382.50;5030128;28;20037;-68
2022/01/21 04:49:51;;;;;;;14.80;2.75;;;;;;;-1.68;97.40;103390.34;5025579;28;20022;-68
2022/01/21 04:52:17;;;;;;;10.43;2.60;;;;;;;-1.69;97.19;103392.91;5028327;28;20469;-68
2022/01/21 04:54:42;;;;;;;14.38;2.55;;;;;;;-1.71;97.49;103379.88;5026780;28;20602;-68
2022/01/21 04:57:08;;;;;;;11.60;3.15;;;;;;;-1.70;97.41;103375.53;5025092;28;20021;-68
2022/01/21 04:59:35;;;;;;;11.07;2.72;;;;;;;-1.71;97.36;103379.88;5028657;28;20025;-68
2022/01/21 05:02:00;;;;;;;15.65;3.03;;;;;;;-1.71;97.35;103384.22;5028343;28;20091;-69
2022/01/21 05:04:26;;;;;;;15.13;3.15;;;;;;;-1.70;97.65;103372.91;5023441;28;20033;-68
2022/01/21 05:06:53;;;;;;;16.80;3.17;;;;;;;-1.71;97.54;103372.03;5028941;28;20022;-68
2022/01/21 05:09:19;;;;;;;10.23;3.22;;;;;;;-1.71;97.74;103371.19;5027204;28;20049;-68
2022/01/21 05:11:47;;;;;;;11.55;2.92;;;;;;;-1.71;97.79;103358.16;5030062;28;20437;-68
2022/01/21 05:16:44;;;;;;;11.65;3.22;;;;;;;-1.68;98.46;103371.22;5032031;28;20025;-68
2022/01/21 05:19:15;;;;;;;17.88;4.03;;;;;;;-1.68;98.25;103361.69;5029330;28;20459;-68
2022/01/21 05:21:40;;;;;;;12.55;3.80;;;;;;;-1.68;98.52;103369.50;5031037;28;20076;-68
2022/01/21 05:24:06;;;;;;;11.52;3.92;;;;;;;-1.66;98.76;103371.25;5033727;28;20025;-68
2022/01/21 05:26:37;;;;;;;13.57;3.63;;;;;;;-1.68;98.76;103369.50;5029838;28;20033;-68
2022/01/21 05:29:04;;;;;;;16.42;4.13;;;;;;;-1.69;98.55;103374.69;5033684;28;20426;-68
2022/01/21 05:31:29;;;;;;;13.75;4.00;;;;;;;-1.66;98.61;103379.06;5033497;28;20034;-68
2022/01/21 05:33:54;;;;;;;12.60;3.88;;;;;;;-1.68;98.71;103382.53;5034208;28;20108;-68
2022/01/21 05:36:19;;;;;;;20.48;4.70;;;;;;;-1.68;98.50;103384.25;5025637;28;20040;-68
2022/01/21 05:38:45;;;;;;;12.35;4.20;;;;;;;-1.70;98.50;103379.03;5033470;28;20439;-67
2022/01/21 05:41:11;;;;;;;14.32;4.65;;;;;;;-1.70;98.54;103385.94;5033183;28;20037;-67
2022/01/21 05:43:38;;;;;;;13.35;4.38;;;;;;;-1.72;98.66;103388.53;5033252;28;20055;-67
2022/01/21 05:48:46;;;;;;;15.73;5.47;;;;;;;-1.71;98.61;103387.69;5029276;28;20281;-68
2022/01/21 05:51:12;;;;;;;16.92;4.93;;;;;;;-1.71;98.61;103372.03;5024626;28;20112;-68
2022/01/21 05:53:39;;;;;;;13.73;5.38;;;;;;;-1.71;98.76;103377.25;5032858;28;20111;-68
2022/01/21 05:56:04;;;;;;;12.52;4.75;;;;;;;-1.72;98.78;103379.84;5021300;28;20080;-68
2022/01/21 05:58:30;;;;;;;17.80;5.28;;;;;;;-1.73;98.43;103380.72;5033228;28;20033;-67
2022/01/21 06:00:57;;;;;;;15.80;5.38;;;;;;;-1.75;98.58;103385.91;5031682;28;20133;-68
2022/01/21 06:03:22;;;;;;;11.40;4.80;;;;;;;-1.76;98.60;103391.06;5027901;28;20030;-68
2022/01/21 06:05:47;;;;;;;21.05;5.78;;;;;;;-1.77;98.49;103384.09;5029059;28;20029;-68
2022/01/21 06:08:13;;;;;;;15.30;5.30;;;;;;;-1.80;98.24;103386.66;5024632;28;20498;-68
2022/01/21 06:10:38;;;;;;;16.08;4.82;;;;;;;-1.80;98.18;103395.34;5033178;28;20051;-68
2022/01/21 06:13:03;;;;;;;11.65;4.90;;;;;;;-1.78;98.27;103382.34;5032698;28;20068;-68
2022/01/21 06:15:29;;;;;;;13.73;5.28;;;;;;;-1.79;98.52;103391.91;5030816;28;20105;-68
2022/01/21 06:17:54;;;;;;;13.75;5.32;;;;;;;-1.78;98.78;103400.56;5031546;28;20066;-68
2022/01/21 06:20:19;;;;;;;17.27;5.80;;;;;;;-1.80;98.24;103397.94;5032644;28;20029;-68
2022/01/21 06:22:45;;;;;;;13.88;5.60;;;;;;;-1.80;98.67;103405.75;5032248;28;20026;-69
2022/01/21 06:25:10;;;;;;;16.38;5.05;;;;;;;-1.80;98.51;103403.16;5022182;28;20029;-69
2022/01/21 06:27:38;;;;;;;13.55;5.55;;;;;;;-1.81;98.56;103401.41;5032542;28;20400;-68
2022/01/21 06:30:04;;;;;;;17.10;6.95;;;;;;;-1.80;98.90;103410.97;5032585;28;20475;-68
2022/01/21 06:32:30;;;;;;;16.40;6.22;;;;;;;-1.79;98.92;103409.25;5032510;28;20344;-68
2022/01/21 06:34:55;;;;;;;17.42;6.63;;;;;;;-1.77;99.30;103415.38;5030433;28;20053;-69
2022/01/21 06:37:21;;;;;;;15.10;7.25;;;;;;;-1.77;99.46;103420.56;5032455;28;20024;-68
2022/01/21 06:39:46;;;;;;;22.02;7.45;;;;;;;-1.75;99.81;103429.28;5032147;28;20543;-69
2022/01/21 06:42:11;;;;;;;11.55;6.35;;;;;;;-1.78;99.44;103430.13;5032232;28;20471;-68
2022/01/21 06:44:37;;;;;;;19.60;7.18;;;;;;;-1.75;99.55;103434.50;5023147;28;20045;-68
2022/01/21 06:47:03;;;;;;;18.45;6.85;;;;;;;-1.75;99.73;103440.59;5026966;28;20057;-69
2022/01/21 06:49:28;;;;;;;16.48;6.82;;;;;;;-1.75;99.59;103431.91;5012354;28;20120;-68
2022/01/21 06:51:53;;;;;;;14.00;6.90;;;;;;;-1.73;99.80;103436.28;5012246;28;20148;-69
2022/01/21 06:54:19;;;;;;;17.88;6.97;;;;;;;-1.71;99.99;103447.63;5012346;28;20030;-68
2022/01/21 06:56:44;;;;;;;14.93;7.07;;;;;;;-1.66;100.00;103449.44;5012000;28;20064;-68
2022/01/21 06:59:09;;;;;;;15.20;8.18;;;;;;;-1.63;100.00;103442.53;5012210;28;20048;-69
2022/01/21 07:01:35;;;;;;;18.08;8.23;;;;;;;-1.58;100.00;103445.19;5012484;28;20389;-68
2022/01/21 07:04:01;;;;;;;15.85;7.97;;;;;;;-1.57;100.00;103445.22;5012189;28;20026;-68
2022/01/21 07:06:27;;;;;;;20.50;8.88;;;;;;;-1.51;100.00;103449.66;5011017;28;20037;-68
2022/01/21 07:08:52;;;;;;;19.38;8.98;;;;;;;-1.48;100.00;103457.53;5011938;28;20153;-68
2022/01/21 07:11:18;;;;;;;17.90;8.93;;;;;;;-1.45;100.00;103462.78;5012268;28;20033;-68
2022/01/21 07:13:43;;;;;;;25.70;9.35;;;;;;;-1.42;100.00;103470.66;5020332;28;20037;-67
2022/01/21 07:16:08;;;;;;;20.13;9.70;;;;;;;-1.38;100.00;103467.25;5027805;28;20041;-67
2022/01/21 07:18:35;;;;;;;18.48;9.63;;;;;;;-1.34;100.00;103462.97;5025464;28;20056;-67
2022/01/21 07:21:00;;;;;;;26.00;10.15;;;;;;;-1.31;100.00;103463.88;5030550;28;20037;-67
2022/01/21 07:23:26;;;;;;;19.83;10.07;;;;;;;-1.26;100.00;103463.09;5031199;28;20061;-68
2022/01/21 07:25:51;;;;;;;19.90;10.27;;;;;;;-1.21;100.00;103462.28;5017896;28;20084;-68
2022/01/21 07:28:17;;;;;;;20.70;10.90;;;;;;;-1.16;100.00;103457.16;5031225;28;20045;-68
2022/01/21 07:30:42;;;;;;;24.92;10.73;;;;;;;-1.12;100.00;103456.31;5029312;28;20097;-68
2022/01/21 07:33:08;;;;;;;20.00;10.95;;;;;;;-1.05;100.00;103459.91;5030597;28;20059;-68
2022/01/21 07:35:34;;;;;;;19.05;10.93;;;;;;;-1.03;100.00;103471.22;5016556;28;20096;-68
2022/01/21 07:37:59;;;;;;;23.63;11.35;;;;;;;-1.01;100.00;103473.00;5013192;28;20029;-68
2022/01/21 07:40:25;;;;;;;16.95;11.05;;;;;;;-0.95;100.00;103480.03;5021285;28;20037;-68
2022/01/21 07:42:50;;;;;;;23.45;11.80;;;;;;;-0.90;100.00;103477.50;5028486;28;20460;-68
2022/01/21 07:45:15;;;;;;;24.77;11.45;;;;;;;-0.87;100.00;103475.81;5027167;28;20025;-68
2022/01/21 07:47:40;;;;;;;19.90;11.07;;;;;;;-0.84;100.00;103477.59;5011385;28;20369;-69
2022/01/21 07:50:06;;;;;;;15.35;11.60;;;;;;;-0.83;100.00;103461.09;5019239;28;20392;-68
2022/01/21 07:52:32;;;;;;;17.77;11.27;;;;;;;-0.82;100.00;103465.44;5018868;28;20041;-69
2022/01/21 07:54:57;;;;;;;19.77;10.77;;;;;;;-0.79;100.00;103488.97;5028317;28;20041;-68
2022/01/21 07:57:22;;;;;;;20.70;11.57;;;;;;;-0.77;100.00;103474.19;5011809;28;20045;-69
2022/01/21 07:59:48;;;;;;;21.48;10.48;;;;;;;-0.77;100.00;103476.81;5012318;28;20014;-68
2022/01/21 08:02:13;;;;;;;19.48;9.90;;;;;;;-0.75;100.00;103472.47;5014242;28;20053;-69
2022/01/21 08:04:38;;;;;;;15.52;10.40;;;;;;;-0.73;100.00;103459.44;5012893;28;20026;-67
2022/01/21 08:07:04;;;;;;;22.95;10.20;;;;;;;-0.73;100.00;103452.53;5014448;28;20376;-69
2022/01/21 08:09:29;;;;;;;16.05;9.75;;;;;;;-0.68;100.00;103468.22;5015284;28;20049;-68
2022/01/21 08:11:55;;;;;;;19.33;10.98;;;;;;;-0.67;100.00;103459.53;5016249;28;20045;-67
2022/01/21 08:14:21;;;;;;;19.48;9.50;;;;;;;-0.65;100.00;103460.44;5017948;28;20464;-68
2022/01/21 08:16:46;;;;;;;18.20;9.38;;;;;;;-0.64;100.00;103455.22;5014115;28;20040;-68
2022/01/21 08:19:13;;;;;;;16.40;9.40;;;;;;;-0.60;100.00;103453.53;5011713;28;20037;-69
2022/01/21 08:21:39;;;;;;;14.13;8.38;;;;;;;-0.59;100.00;103450.06;5011078;28;20471;-68
2022/01/21 08:24:06;;;;;;;21.38;9.32;;;;;;;-0.56;100.00;103443.16;5011028;28;20033;-68
2022/01/21 08:26:32;;;;;;;21.02;9.13;;;;;;;-0.50;100.00;103454.50;5010107;28;20076;-68
2022/01/21 08:28:58;;;;;;;19.65;9.35;;;;;;;-0.48;100.00;103442.34;5012426;28;20061;-68
2022/01/21 08:31:24;;;;;;;21.30;9.50;;;;;;;-0.46;100.00;103440.66;5015667;28;20822;-68
2022/01/21 08:33:50;;;;;;;17.13;8.70;;;;;;;-0.45;100.00;103437.16;5014875;28;20498;-68
2022/01/21 08:36:18;;;;;;;18.63;8.38;;;;;;;-0.45;100.00;103440.69;5025814;28;20045;-69
2022/01/21 08:38:43;;;;;;;13.97;8.20;;;;;;;-0.42;100.00;103438.09;5029683;28;20061;-68
2022/01/21 08:41:09;;;;;;;17.08;9.10;;;;;;;-0.36;100.00;103455.56;5021692;28;20073;-68
2022/01/21 08:43:34;;;;;;;19.50;9.60;;;;;;;-0.33;100.00;103460.81;5017229;28;20038;-68
2022/01/21 08:45:59;;;;;;;15.25;9.88;;;;;;;-0.28;100.00;103466.09;5028220;28;20079;-67
2022/01/21 08:48:24;;;;;;;19.67;11.07;;;;;;;-0.23;100.00;103457.44;5027610;28;20073;-68
2022/01/21 08:50:50;;;;;;;16.40;10.27;;;;;;;-0.21;100.00;103458.34;5030335;28;20026;-68
2022/01/21 08:56:00;;;;;;;15.63;10.73;;;;;;;-0.07;100.00;103465.44;5028296;28;20037;-69
2022/01/21 08:58:25;;;;;;;13.40;10.00;;;;;;;-0.02;100.00;103468.97;5031768;28;20033;-69
2022/01/21 09:00:51;;;;;;;18.35;10.27;;;;;;;0.01;100.00;103465.53;5029554;28;20445;-68
2022/01/21 09:03:17;;;;;;;19.35;10.93;;;;;;;0.06;100.00;103471.66;5018397;28;20030;-69
2022/01/21 09:05:48;;;;;;;19.95;10.40;;;;;;;0.12;100.00;103464.75;5015343;28;20056;-69
2022/01/21 09:08:14;;;;;;;19.63;9.50;;;;;;;0.21;100.00;103463.97;5014669;28;20029;-69
2022/01/21 09:10:40;;;;;;;23.08;9.07;;;;;;;0.26;100.00;103443.97;5013985;28;20029;-69
2022/01/21 09:13:05;;;;;;;22.13;9.27;;;;;;;0.34;100.00;103444.91;5024732;28;20025;-69
2022/01/21 09:15:31;;;;;;;18.90;9.13;;;;;;;0.40;100.00;103432.75;5021939;28;20028;-69
2022/01/21 09:18:03;;;;;;;14.70;7.97;;;;;;;0.45;100.00;103431.94;5013308;28;20068;-68
2022/01/21 09:20:28;;;;;;;16.63;7.85;;;;;;;0.51;100.00;103425.88;5028977;28;20037;-69
2022/01/21 09:22:53;;;;;;;13.57;7.03;;;;;;;0.56;100.00;103424.16;5024964;28;20471;-71
2022/01/21 09:25:18;;;;;;;14.02;6.65;;;;;;;0.68;100.00;103429.47;5029670;28;20059;-69
2022/01/21 09:27:44;;;;;;;16.75;7.45;;;;;;;0.78;100.00;103434.75;5033743;28;20037;-70
2022/01/21 09:30:10;;;;;;;15.35;7.45;;;;;;;0.87;100.00;103440.06;5041320;28;20041;-70
2022/01/21 09:32:35;;;;;;;12.82;6.13;;;;;;;0.97;100.00;103434.00;5039673;28;20052;-69
2022/01/21 09:35:00;;;;;;;16.85;7.00;;;;;;;1.08;100.00;103439.28;5029884;28;20038;-69
2022/01/21 09:37:26;;;;;;;19.27;7.43;;;;;;;1.18;100.00;103433.22;5029301;28;20022;-69
2022/01/21 09:39:51;;;;;;;17.70;7.43;;;;;;;1.33;100.00;103442.00;5022342;28;20504;-70
2022/01/21 09:42:16;;;;;;;21.70;7.10;;;;;;;1.44;100.00;103448.16;5028252;28;20025;-70
2022/01/21 09:44:44;;;;;;;15.45;6.70;;;;;;;1.58;100.00;103443.88;5029533;28;20129;-70
2022/01/21 09:47:12;;;;;;;17.27;7.30;;;;;;;1.67;100.00;103451.72;5027488;28;20104;-70
2022/01/21 09:49:41;;;;;;;15.02;7.20;;;;;;;1.83;100.00;103443.91;5022096;28;20076;-70
2022/01/21 09:52:09;;;;;;;17.83;7.40;;;;;;;1.89;100.00;103443.06;5023590;28;20467;-70
2022/01/21 09:54:37;;;;;;;15.02;6.32;;;;;;;2.10;100.00;103456.19;5031239;28;20034;-70
2022/01/21 09:57:05;;;;;;;15.80;6.55;;;;;;;2.22;100.00;103463.19;5030931;28;20021;-70
2022/01/21 09:59:33;;;;;;;15.73;6.03;;;;;;;2.35;100.00;103457.06;5022768;28;20033;-70
2022/01/21 10:02:05;;;;;;;19.35;6.28;;;;;;;2.48;100.00;103462.31;5034786;28;20412;-71
2022/01/21 10:04:33;;;;;;;13.85;5.22;;;;;;;2.61;99.46;103466.66;5035408;28;20053;-71
2022/01/21 10:07:00;;;;;;;16.65;6.05;;;;;;;2.75;99.75;103477.16;5032977;28;20079;-71
2022/01/21 10:09:25;;;;;;;13.57;5.25;;;;;;;2.86;98.80;103464.00;5036410;28;20449;-71
2022/01/21 10:11:54;;;;;;;14.27;5.43;;;;;;;3.01;98.25;103468.34;5029295;28;20085;-71
2022/01/21 10:14:24;;;;;;;17.60;5.20;;;;;;;3.17;97.73;103477.06;5042682;28;20467;-71
2022/01/21 10:16:50;;;;;;;13.35;4.95;;;;;;;3.28;97.90;103483.13;5039602;28;20025;-71
2022/01/21 10:19:24;;;;;;;13.27;5.00;;;;;;;3.38;97.53;103490.13;5039263;28;20035;-72
2022/01/21 10:22:18;;;;;;;11.30;5.00;;;;;;;3.47;96.73;103490.06;5048175;28;20022;-72
2022/01/21 10:24:54;;;;;;;11.77;4.50;;;;;;;3.55;96.44;103499.66;5031463;28;20037;-72
2022/01/21 10:27:28;;;;;;;12.50;4.88;;;;;;;3.63;96.98;103498.78;5036764;28;20044;-73
2022/01/21 10:29:56;;;;;;;13.93;4.45;;;;;;;3.62;95.10;103496.16;5034166;28;20392;-72
2022/01/21 10:32:37;;;;;;;15.57;4.90;;;;;;;3.68;95.86;103493.47;5036521;28;20037;-73
2022/01/21 10:35:04;;;;;;;16.35;4.85;;;;;;;3.80;95.80;103495.19;5032712;28;20038;-73
2022/01/21 10:37:34;;;;;;;14.35;4.88;;;;;;;3.87;94.92;103481.13;5037380;28;20061;-73
2022/01/21 10:40:00;;;;;;;;;;;;;;;3.99;96.38;103496.81;5023848;28;20034;-73
2022/01/21 10:42:27;;;;;;;13.05;4.70;;;;;;;4.15;95.21;103496.75;5033606;28;20059;-73
2022/01/21 10:44:52;;;;;;;15.70;4.55;;;;;;;4.28;94.78;103493.13;5032919;28;20498;-73
2022/01/21 10:47:18;;;;;;;16.13;4.47;;;;;;;4.39;94.36;103499.16;5032383;28;20017;-73
2022/01/21 10:49:57;;;;;;;12.77;4.72;;;;;;;4.58;94.78;103494.63;5027050;28;20537;-73
2022/01/21 10:52:34;;;;;;;18.45;5.13;;;;;;;4.70;93.70;103498.06;5032822;28;20052;-73
2022/01/21 10:54:59;;;;;;;13.43;3.72;;;;;;;4.73;91.77;103498.00;5029973;28;20095;-74
2022/01/21 10:57:27;;;;;;;11.95;4.35;;;;;;;4.75;91.24;103497.13;5046187;28;20025;-73
2022/01/21 11:00:06;;;;;;;13.13;3.90;;;;;;;4.80;91.42;103492.66;5045482;28;20037;-73
2022/01/21 11:02:43;;;;;;;16.17;4.20;;;;;;;4.81;90.53;103488.28;5063090;28;20076;-74
2022/01/21 11:05:39;;;;;;;17.25;4.03;;;;;;;4.82;91.19;103485.63;5055152;28;20013;-72
2022/01/21 11:08:08;;;;;;;16.92;4.88;;;;;;;4.85;92.72;103483.88;5043104;28;20071;-72
2022/01/21 11:10:36;;;;;;;13.07;4.25;;;;;;;4.85;92.06;103476.84;5030009;28;20056;-72
2022/01/21 11:13:13;;;;;;;18.65;5.18;;;;;;;4.87;92.10;103464.50;5032324;28;20033;-72
2022/01/21 11:15:40;;;;;;;17.23;4.70;;;;;;;4.86;91.67;103464.53;5032464;28;20083;-73
2022/01/21 11:18:08;;;;;;;14.30;4.55;;;;;;;4.90;92.29;103458.34;5027175;28;20034;-72
2022/01/21 11:20:37;;;;;;;18.65;4.60;;;;;;;4.93;92.53;103459.19;5027328;28;20416;-73
2022/01/21 11:23:03;;;;;;;23.55;6.13;;;;;;;4.97;91.62;103450.34;5034634;28;20029;-73
2022/01/21 11:25:43;;;;;;;12.88;4.93;;;;;;;5.05;91.59;103430.97;5042777;28;20018;-73
2022/01/21 11:28:09;;;;;;;16.45;5.28;;;;;;;5.07;90.53;103431.81;5039436;28;20021;-73
2022/01/21 11:30:34;;;;;;;14.00;4.40;;;;;;;5.09;90.07;103433.53;5050589;28;20033;-73
2022/01/21 11:33:00;;;;;;;16.95;4.82;;;;;;;5.10;90.09;103430.03;5052994;28;20087;-72
2022/01/21 11:35:29;;;;;;;18.05;5.05;;;;;;;5.15;89.97;103424.69;5051590;28;20049;-73
2022/01/21 11:37:55;;;;;;;19.27;4.70;;;;;;;5.17;89.54;103430.81;5052790;28;20025;-73
2022/01/21 11:40:21;;;;;;;16.52;4.45;;;;;;;5.18;88.92;103424.66;5053438;28;20025;-73
2022/01/21 11:42:47;;;;;;;18.85;5.28;;;;;;;5.19;89.39;103426.41;5052853;28;20135;-73
2022/01/21 11:45:31;;;;;;;16.65;4.40;;;;;;;5.19;89.03;103431.66;5049278;28;20041;-73
2022/01/21 11:50:40;;;;;;;12.93;4.40;;;;;;;5.21;88.85;103429.88;5042431;28;20045;-72
2022/01/21 11:53:05;;;;;;;16.38;4.30;;;;;;;5.18;88.34;103429.94;5030609;28;20041;-72
2022/01/21 11:55:34;;;;;;;13.63;4.47;;;;;;;5.19;89.30;103426.41;5032686;28;20535;-73
2022/01/21 11:58:28;;;;;;;10.17;4.13;;;;;;;5.24;89.49;103421.06;5028180;28;20025;-73
2022/01/21 12:00:54;;;;;;;12.50;4.38;;;;;;;5.18;88.93;103420.25;5019332;28;20291;-73
2022/01/21 12:03:23;;;;;;;17.55;4.65;;;;;;;5.18;89.00;103428.16;5029741;28;20041;-73
2022/01/21 12:05:49;;;;;;;18.65;4.32;;;;;;;5.19;88.78;103424.63;5028419;28;20033;-73
2022/01/21 12:08:15;;;;;;;17.63;4.30;;;;;;;5.18;88.10;103420.25;5029409;28;20032;-74
2022/01/21 12:10:43;;;;;;;14.95;3.92;;;;;;;5.19;88.66;103419.34;5022192;28;20388;-73
2022/01/21 12:13:19;;;;;;;17.38;5.20;;;;;;;5.19;88.69;103414.09;5025000;28;20033;-74
2022/01/21 12:16:17;;;;;;;18.10;3.70;;;;;;;5.19;89.03;103407.94;5030785;28;20032;-73